sensor_id;sensor_type;location;lat;lon;timestamp;P1;durP1;ratioP1;P2;durP2;ratioP2
15312;SDS011;7757;52.626;4.746;2023-07-28T00:00:01;10.82;;;2.03;;
15312;SDS011;7757;52.626;4.746;2023-07-28T00:02:27;11.80;;;1.92;;
15312;SDS011;7757;52.626;4.746;2023-07-28T00:04:52;12.27;;;2.33;;
15312;SDS011;7757;52.626;4.746;2023-07-28T00:07:18;10.75;;;1.90;;
15312;SDS011;7757;52.626;4.746;2023-07-28T00:09:44;15.18;;;2.20;;
15312;SDS011;7757;52.626;4.746;2023-07-28T00:12:10;21.65;;;2.30;;
15312;SDS011;7757;52.626;4.746;2023-07-28T00:14:38;13.50;;;2.08;;
15312;SDS011;7757;52.626;4.746;2023-07-28T00:17:03;14.10;;;2.20;;
15312;SDS011;7757;52.626;4.746;2023-07-28T00:19:28;22.27;;;2.15;;
15312;SDS011;7757;52.626;4.746;2023-07-28T00:21:54;14.15;;;2.15;;
15312;SDS011;7757;52.626;4.746;2023-07-28T00:24:22;17.23;;;2.45;;
15312;SDS011;7757;52.626;4.746;2023-07-28T00:26:47;14.40;;;2.00;;
15312;SDS011;7757;52.626;4.746;2023-07-28T00:29:13;14.52;;;2.42;;
15312;SDS011;7757;52.626;4.746;2023-07-28T00:31:42;12.65;;;2.17;;
15312;SDS011;7757;52.626;4.746;2023-07-28T00:34:08;12.32;;;1.90;;
15312;SDS011;7757;52.626;4.746;2023-07-28T00:36:33;14.45;;;2.33;;
15312;SDS011;7757;52.626;4.746;2023-07-28T00:39:00;14.40;;;2.38;;
15312;SDS011;7757;52.626;4.746;2023-07-28T00:41:27;9.88;;;1.80;;
15312;SDS011;7757;52.626;4.746;2023-07-28T00:43:53;12.30;;;2.25;;
15312;SDS011;7757;52.626;4.746;2023-07-28T00:46:19;10.45;;;2.03;;
15312;SDS011;7757;52.626;4.746;2023-07-28T00:48:44;12.55;;;2.20;;
15312;SDS011;7757;52.626;4.746;2023-07-28T00:51:10;9.98;;;1.90;;
15312;SDS011;7757;52.626;4.746;2023-07-28T00:53:36;10.95;;;2.40;;
15312;SDS011;7757;52.626;4.746;2023-07-28T00:56:02;12.63;;;2.13;;
15312;SDS011;7757;52.626;4.746;2023-07-28T00:58:29;14.82;;;2.30;;
15312;SDS011;7757;52.626;4.746;2023-07-28T01:00:58;12.70;;;2.28;;
15312;SDS011;7757;52.626;4.746;2023-07-28T01:03:23;13.05;;;2.20;;
15312;SDS011;7757;52.626;4.746;2023-07-28T01:11:06;15.43;;;2.10;;
15312;SDS011;7757;52.626;4.746;2023-07-28T01:13:33;11.80;;;1.92;;
15312;SDS011;7757;52.626;4.746;2023-07-28T01:15:59;11.75;;;1.92;;
15312;SDS011;7757;52.626;4.746;2023-07-28T01:18:26;10.95;;;2.03;;
15312;SDS011;7757;52.626;4.746;2023-07-28T01:20:52;9.88;;;1.92;;
15312;SDS011;7757;52.626;4.746;2023-07-28T01:28:35;12.77;;;2.25;;
15312;SDS011;7757;52.626;4.746;2023-07-28T01:31:02;12.18;;;2.40;;
15312;SDS011;7757;52.626;4.746;2023-07-28T01:33:29;11.63;;;2.38;;
15312;SDS011;7757;52.626;4.746;2023-07-28T01:35:56;11.07;;;2.03;;
15312;SDS011;7757;52.626;4.746;2023-07-28T01:38:23;10.82;;;2.17;;
15312;SDS011;7757;52.626;4.746;2023-07-28T01:40:50;9.20;;;2.00;;
15312;SDS011;7757;52.626;4.746;2023-07-28T01:43:15;13.18;;;2.00;;
15312;SDS011;7757;52.626;4.746;2023-07-28T01:45:40;12.05;;;2.15;;
15312;SDS011;7757;52.626;4.746;2023-07-28T01:48:06;11.88;;;2.45;;
15312;SDS011;7757;52.626;4.746;2023-07-28T01:50:34;13.68;;;2.72;;
15312;SDS011;7757;52.626;4.746;2023-07-28T01:53:01;11.77;;;2.17;;
15312;SDS011;7757;52.626;4.746;2023-07-28T01:55:28;11.77;;;2.03;;
15312;SDS011;7757;52.626;4.746;2023-07-28T01:57:57;11.55;;;2.30;;
15312;SDS011;7757;52.626;4.746;2023-07-28T02:00:24;12.63;;;2.20;;
15312;SDS011;7757;52.626;4.746;2023-07-28T02:02:51;9.57;;;2.30;;
15312;SDS011;7757;52.626;4.746;2023-07-28T02:05:18;9.02;;;2.10;;
15312;SDS011;7757;52.626;4.746;2023-07-28T02:07:43;10.68;;;2.55;;
15312;SDS011;7757;52.626;4.746;2023-07-28T02:10:09;11.65;;;1.95;;
15312;SDS011;7757;52.626;4.746;2023-07-28T02:12:35;12.52;;;2.30;;
15312;SDS011;7757;52.626;4.746;2023-07-28T02:15:01;11.13;;;2.05;;
15312;SDS011;7757;52.626;4.746;2023-07-28T02:17:27;12.38;;;2.45;;
15312;SDS011;7757;52.626;4.746;2023-07-28T02:19:53;11.95;;;2.20;;
15312;SDS011;7757;52.626;4.746;2023-07-28T02:22:19;11.48;;;2.42;;
15312;SDS011;7757;52.626;4.746;2023-07-28T02:24:45;12.65;;;2.20;;
15312;SDS011;7757;52.626;4.746;2023-07-28T02:27:10;13.02;;;2.30;;
15312;SDS011;7757;52.626;4.746;2023-07-28T02:29:37;14.32;;;2.65;;
15312;SDS011;7757;52.626;4.746;2023-07-28T02:32:02;12.35;;;2.38;;
15312;SDS011;7757;52.626;4.746;2023-07-28T02:34:28;12.48;;;2.72;;
15312;SDS011;7757;52.626;4.746;2023-07-28T02:36:54;15.15;;;2.60;;
15312;SDS011;7757;52.626;4.746;2023-07-28T02:39:19;13.95;;;2.85;;
15312;SDS011;7757;52.626;4.746;2023-07-28T02:41:45;11.35;;;2.10;;
15312;SDS011;7757;52.626;4.746;2023-07-28T02:44:11;13.00;;;2.40;;
15312;SDS011;7757;52.626;4.746;2023-07-28T02:46:36;9.70;;;2.28;;
15312;SDS011;7757;52.626;4.746;2023-07-28T02:49:02;9.40;;;2.20;;
15312;SDS011;7757;52.626;4.746;2023-07-28T02:51:29;10.65;;;2.15;;
15312;SDS011;7757;52.626;4.746;2023-07-28T02:53:55;10.68;;;2.38;;
15312;SDS011;7757;52.626;4.746;2023-07-28T02:56:21;11.05;;;2.40;;
15312;SDS011;7757;52.626;4.746;2023-07-28T02:58:47;9.48;;;2.08;;
15312;SDS011;7757;52.626;4.746;2023-07-28T03:01:13;9.93;;;2.28;;
15312;SDS011;7757;52.626;4.746;2023-07-28T03:03:38;11.90;;;2.30;;
15312;SDS011;7757;52.626;4.746;2023-07-28T03:06:04;11.88;;;2.58;;
15312;SDS011;7757;52.626;4.746;2023-07-28T03:08:29;15.20;;;2.70;;
15312;SDS011;7757;52.626;4.746;2023-07-28T03:10:58;10.13;;;2.33;;
15312;SDS011;7757;52.626;4.746;2023-07-28T03:13:24;15.07;;;2.63;;
15312;SDS011;7757;52.626;4.746;2023-07-28T03:15:49;12.02;;;2.75;;
15312;SDS011;7757;52.626;4.746;2023-07-28T03:18:14;11.52;;;2.40;;
15312;SDS011;7757;52.626;4.746;2023-07-28T03:20:40;11.95;;;2.83;;
15312;SDS011;7757;52.626;4.746;2023-07-28T03:23:05;15.32;;;3.00;;
15312;SDS011;7757;52.626;4.746;2023-07-28T03:25:31;12.45;;;2.35;;
15312;SDS011;7757;52.626;4.746;2023-07-28T03:27:56;12.82;;;2.78;;
15312;SDS011;7757;52.626;4.746;2023-07-28T03:30:21;14.27;;;3.03;;
15312;SDS011;7757;52.626;4.746;2023-07-28T03:32:47;10.98;;;2.40;;
15312;SDS011;7757;52.626;4.746;2023-07-28T03:35:12;13.23;;;2.85;;
15312;SDS011;7757;52.626;4.746;2023-07-28T03:37:38;12.60;;;2.70;;
15312;SDS011;7757;52.626;4.746;2023-07-28T03:40:03;13.23;;;2.63;;
15312;SDS011;7757;52.626;4.746;2023-07-28T03:42:29;16.83;;;2.80;;
15312;SDS011;7757;52.626;4.746;2023-07-28T03:44:54;12.80;;;2.70;;
15312;SDS011;7757;52.626;4.746;2023-07-28T03:47:20;10.70;;;2.70;;
15312;SDS011;7757;52.626;4.746;2023-07-28T03:49:45;12.00;;;2.60;;
15312;SDS011;7757;52.626;4.746;2023-07-28T03:52:11;14.25;;;2.90;;
15312;SDS011;7757;52.626;4.746;2023-07-28T03:54:36;12.18;;;3.00;;
15312;SDS011;7757;52.626;4.746;2023-07-28T03:57:02;10.43;;;2.72;;
15312;SDS011;7757;52.626;4.746;2023-07-28T03:59:27;14.70;;;3.22;;
15312;SDS011;7757;52.626;4.746;2023-07-28T04:01:52;11.45;;;3.17;;
15312;SDS011;7757;52.626;4.746;2023-07-28T04:04:18;13.25;;;2.70;;
15312;SDS011;7757;52.626;4.746;2023-07-28T04:06:44;12.95;;;2.88;;
15312;SDS011;7757;52.626;4.746;2023-07-28T04:09:12;12.02;;;2.78;;
15312;SDS011;7757;52.626;4.746;2023-07-28T04:11:39;15.23;;;3.38;;
15312;SDS011;7757;52.626;4.746;2023-07-28T04:14:05;14.13;;;3.08;;
15312;SDS011;7757;52.626;4.746;2023-07-28T04:16:31;18.60;;;3.85;;
15312;SDS011;7757;52.626;4.746;2023-07-28T04:18:58;12.90;;;2.95;;
15312;SDS011;7757;52.626;4.746;2023-07-28T04:21:23;11.68;;;2.67;;
15312;SDS011;7757;52.626;4.746;2023-07-28T04:23:49;13.55;;;2.97;;
15312;SDS011;7757;52.626;4.746;2023-07-28T04:26:15;10.82;;;2.70;;
15312;SDS011;7757;52.626;4.746;2023-07-28T04:28:42;12.88;;;2.90;;
15312;SDS011;7757;52.626;4.746;2023-07-28T04:31:07;10.77;;;2.90;;
15312;SDS011;7757;52.626;4.746;2023-07-28T04:33:33;9.15;;;2.60;;
15312;SDS011;7757;52.626;4.746;2023-07-28T04:36:02;12.82;;;2.72;;
15312;SDS011;7757;52.626;4.746;2023-07-28T04:38:29;11.98;;;2.70;;
15312;SDS011;7757;52.626;4.746;2023-07-28T04:40:54;14.38;;;2.90;;
15312;SDS011;7757;52.626;4.746;2023-07-28T04:43:20;14.63;;;2.90;;
15312;SDS011;7757;52.626;4.746;2023-07-28T04:45:45;13.13;;;3.47;;
15312;SDS011;7757;52.626;4.746;2023-07-28T04:48:12;13.15;;;3.47;;
15312;SDS011;7757;52.626;4.746;2023-07-28T04:50:38;10.95;;;2.50;;
15312;SDS011;7757;52.626;4.746;2023-07-28T04:53:04;12.32;;;3.00;;
15312;SDS011;7757;52.626;4.746;2023-07-28T04:55:29;12.13;;;2.80;;
15312;SDS011;7757;52.626;4.746;2023-07-28T04:57:55;12.23;;;3.00;;
15312;SDS011;7757;52.626;4.746;2023-07-28T05:00:21;14.90;;;3.70;;
15312;SDS011;7757;52.626;4.746;2023-07-28T05:02:47;12.05;;;3.10;;
15312;SDS011;7757;52.626;4.746;2023-07-28T05:05:12;9.98;;;2.63;;
15312;SDS011;7757;52.626;4.746;2023-07-28T05:07:37;15.48;;;2.63;;
15312;SDS011;7757;52.626;4.746;2023-07-28T05:10:03;10.45;;;2.67;;
15312;SDS011;7757;52.626;4.746;2023-07-28T05:12:28;12.65;;;2.88;;
15312;SDS011;7757;52.626;4.746;2023-07-28T05:14:54;13.68;;;2.90;;
15312;SDS011;7757;52.626;4.746;2023-07-28T05:17:19;12.50;;;2.90;;
15312;SDS011;7757;52.626;4.746;2023-07-28T05:19:46;14.27;;;2.92;;
15312;SDS011;7757;52.626;4.746;2023-07-28T05:22:14;11.70;;;2.63;;
15312;SDS011;7757;52.626;4.746;2023-07-28T05:24:39;11.32;;;2.92;;
15312;SDS011;7757;52.626;4.746;2023-07-28T05:27:05;12.93;;;2.90;;
15312;SDS011;7757;52.626;4.746;2023-07-28T05:29:30;14.27;;;2.70;;
15312;SDS011;7757;52.626;4.746;2023-07-28T05:31:57;15.13;;;2.95;;
15312;SDS011;7757;52.626;4.746;2023-07-28T05:34:23;12.27;;;3.08;;
15312;SDS011;7757;52.626;4.746;2023-07-28T05:36:49;12.73;;;2.92;;
15312;SDS011;7757;52.626;4.746;2023-07-28T05:39:15;15.13;;;2.88;;
15312;SDS011;7757;52.626;4.746;2023-07-28T05:41:40;13.93;;;3.22;;
15312;SDS011;7757;52.626;4.746;2023-07-28T05:44:06;17.20;;;3.28;;
15312;SDS011;7757;52.626;4.746;2023-07-28T05:46:31;13.73;;;3.13;;
15312;SDS011;7757;52.626;4.746;2023-07-28T05:48:57;12.05;;;2.92;;
15312;SDS011;7757;52.626;4.746;2023-07-28T05:51:23;15.93;;;3.00;;
15312;SDS011;7757;52.626;4.746;2023-07-28T05:53:49;16.38;;;3.13;;
15312;SDS011;7757;52.626;4.746;2023-07-28T05:56:15;15.15;;;3.65;;
15312;SDS011;7757;52.626;4.746;2023-07-28T05:58:41;12.40;;;3.00;;
15312;SDS011;7757;52.626;4.746;2023-07-28T06:01:06;15.07;;;3.22;;
15312;SDS011;7757;52.626;4.746;2023-07-28T06:03:31;12.68;;;3.72;;
15312;SDS011;7757;52.626;4.746;2023-07-28T06:05:57;11.18;;;2.95;;
15312;SDS011;7757;52.626;4.746;2023-07-28T06:08:22;13.20;;;3.03;;
15312;SDS011;7757;52.626;4.746;2023-07-28T06:10:48;9.88;;;2.85;;
15312;SDS011;7757;52.626;4.746;2023-07-28T06:13:13;18.80;;;2.97;;
15312;SDS011;7757;52.626;4.746;2023-07-28T06:15:39;12.23;;;3.00;;
15312;SDS011;7757;52.626;4.746;2023-07-28T06:18:06;11.60;;;2.97;;
15312;SDS011;7757;52.626;4.746;2023-07-28T06:20:31;12.18;;;2.70;;
15312;SDS011;7757;52.626;4.746;2023-07-28T06:22:56;13.10;;;2.97;;
15312;SDS011;7757;52.626;4.746;2023-07-28T06:25:22;11.70;;;3.03;;
15312;SDS011;7757;52.626;4.746;2023-07-28T06:27:48;14.65;;;3.20;;
15312;SDS011;7757;52.626;4.746;2023-07-28T06:30:13;15.52;;;3.22;;
15312;SDS011;7757;52.626;4.746;2023-07-28T06:32:39;14.90;;;2.95;;
15312;SDS011;7757;52.626;4.746;2023-07-28T06:35:04;10.20;;;2.70;;
15312;SDS011;7757;52.626;4.746;2023-07-28T06:37:32;11.55;;;2.50;;
15312;SDS011;7757;52.626;4.746;2023-07-28T06:39:57;12.20;;;2.65;;
15312;SDS011;7757;52.626;4.746;2023-07-28T06:42:23;11.10;;;2.58;;
15312;SDS011;7757;52.626;4.746;2023-07-28T06:44:51;12.02;;;2.90;;
15312;SDS011;7757;52.626;4.746;2023-07-28T06:47:17;11.77;;;2.67;;
15312;SDS011;7757;52.626;4.746;2023-07-28T06:49:43;12.25;;;2.90;;
15312;SDS011;7757;52.626;4.746;2023-07-28T06:52:09;15.57;;;2.92;;
15312;SDS011;7757;52.626;4.746;2023-07-28T06:54:34;12.75;;;2.80;;
15312;SDS011;7757;52.626;4.746;2023-07-28T06:57:00;11.70;;;2.90;;
15312;SDS011;7757;52.626;4.746;2023-07-28T06:59:25;12.25;;;2.75;;
15312;SDS011;7757;52.626;4.746;2023-07-28T07:01:51;13.65;;;3.13;;
15312;SDS011;7757;52.626;4.746;2023-07-28T07:04:17;11.60;;;2.72;;
15312;SDS011;7757;52.626;4.746;2023-07-28T07:06:42;13.68;;;2.60;;
15312;SDS011;7757;52.626;4.746;2023-07-28T07:09:08;11.57;;;3.00;;
15312;SDS011;7757;52.626;4.746;2023-07-28T07:11:33;13.93;;;2.65;;
15312;SDS011;7757;52.626;4.746;2023-07-28T07:13:59;15.40;;;3.25;;
15312;SDS011;7757;52.626;4.746;2023-07-28T07:16:24;19.02;;;3.20;;
15312;SDS011;7757;52.626;4.746;2023-07-28T07:18:51;13.65;;;2.88;;
15312;SDS011;7757;52.626;4.746;2023-07-28T07:21:22;10.68;;;2.78;;
15312;SDS011;7757;52.626;4.746;2023-07-28T07:23:47;12.38;;;3.28;;
15312;SDS011;7757;52.626;4.746;2023-07-28T07:26:13;12.85;;;3.05;;
15312;SDS011;7757;52.626;4.746;2023-07-28T07:28:38;8.98;;;2.75;;
15312;SDS011;7757;52.626;4.746;2023-07-28T07:31:04;10.52;;;2.80;;
15312;SDS011;7757;52.626;4.746;2023-07-28T07:33:30;14.15;;;2.85;;
15312;SDS011;7757;52.626;4.746;2023-07-28T07:35:55;12.93;;;2.90;;
15312;SDS011;7757;52.626;4.746;2023-07-28T07:38:23;13.90;;;3.00;;
15312;SDS011;7757;52.626;4.746;2023-07-28T07:40:48;13.85;;;3.20;;
15312;SDS011;7757;52.626;4.746;2023-07-28T07:43:19;11.88;;;3.30;;
15312;SDS011;7757;52.626;4.746;2023-07-28T07:45:45;13.85;;;3.55;;
15312;SDS011;7757;52.626;4.746;2023-07-28T07:48:12;17.00;;;3.35;;
15312;SDS011;7757;52.626;4.746;2023-07-28T07:50:38;13.82;;;3.83;;
15312;SDS011;7757;52.626;4.746;2023-07-28T07:53:04;13.00;;;3.20;;
15312;SDS011;7757;52.626;4.746;2023-07-28T07:55:30;13.23;;;3.60;;
15312;SDS011;7757;52.626;4.746;2023-07-28T07:57:58;17.38;;;3.70;;
15312;SDS011;7757;52.626;4.746;2023-07-28T08:00:24;17.33;;;3.70;;
15312;SDS011;7757;52.626;4.746;2023-07-28T08:02:49;17.60;;;4.30;;
15312;SDS011;7757;52.626;4.746;2023-07-28T08:05:15;15.48;;;3.92;;
15312;SDS011;7757;52.626;4.746;2023-07-28T08:07:41;13.68;;;3.78;;
15312;SDS011;7757;52.626;4.746;2023-07-28T08:10:07;13.85;;;3.63;;
15312;SDS011;7757;52.626;4.746;2023-07-28T08:12:33;15.95;;;4.20;;
15312;SDS011;7757;52.626;4.746;2023-07-28T08:15:03;15.60;;;3.97;;
15312;SDS011;7757;52.626;4.746;2023-07-28T08:17:29;12.65;;;4.07;;
15312;SDS011;7757;52.626;4.746;2023-07-28T08:19:56;24.17;;;5.95;;
15312;SDS011;7757;52.626;4.746;2023-07-28T08:22:21;18.55;;;4.55;;
15312;SDS011;7757;52.626;4.746;2023-07-28T08:24:48;15.57;;;4.22;;
15312;SDS011;7757;52.626;4.746;2023-07-28T08:27:13;14.73;;;5.03;;
15312;SDS011;7757;52.626;4.746;2023-07-28T08:29:39;15.07;;;4.70;;
15312;SDS011;7757;52.626;4.746;2023-07-28T08:32:04;17.77;;;5.15;;
15312;SDS011;7757;52.626;4.746;2023-07-28T08:34:31;18.42;;;5.10;;
15312;SDS011;7757;52.626;4.746;2023-07-28T08:36:56;15.95;;;4.55;;
15312;SDS011;7757;52.626;4.746;2023-07-28T08:39:21;17.67;;;4.78;;
15312;SDS011;7757;52.626;4.746;2023-07-28T08:41:47;15.13;;;4.68;;
15312;SDS011;7757;52.626;4.746;2023-07-28T08:44:31;17.05;;;4.47;;
15312;SDS011;7757;52.626;4.746;2023-07-28T08:47:02;17.15;;;4.43;;
15312;SDS011;7757;52.626;4.746;2023-07-28T08:49:29;15.88;;;4.78;;
15312;SDS011;7757;52.626;4.746;2023-07-28T08:51:59;17.13;;;4.78;;
15312;SDS011;7757;52.626;4.746;2023-07-28T08:54:26;15.00;;;4.65;;
15312;SDS011;7757;52.626;4.746;2023-07-28T08:56:52;14.85;;;4.88;;
15312;SDS011;7757;52.626;4.746;2023-07-28T08:59:22;16.67;;;4.47;;
15312;SDS011;7757;52.626;4.746;2023-07-28T09:01:50;16.20;;;4.80;;
15312;SDS011;7757;52.626;4.746;2023-07-28T09:04:17;20.98;;;4.93;;
15312;SDS011;7757;52.626;4.746;2023-07-28T09:06:46;17.17;;;4.63;;
15312;SDS011;7757;52.626;4.746;2023-07-28T09:09:13;13.05;;;4.55;;
15312;SDS011;7757;52.626;4.746;2023-07-28T09:11:46;16.27;;;4.80;;
15312;SDS011;7757;52.626;4.746;2023-07-28T09:14:14;16.17;;;5.13;;
15312;SDS011;7757;52.626;4.746;2023-07-28T09:16:41;18.90;;;5.40;;
15312;SDS011;7757;52.626;4.746;2023-07-28T09:19:08;19.40;;;5.40;;
15312;SDS011;7757;52.626;4.746;2023-07-28T09:21:34;14.82;;;5.25;;
15312;SDS011;7757;52.626;4.746;2023-07-28T09:24:00;18.30;;;5.00;;
15312;SDS011;7757;52.626;4.746;2023-07-28T09:29:19;16.92;;;5.28;;
15312;SDS011;7757;52.626;4.746;2023-07-28T09:31:46;15.45;;;4.93;;
15312;SDS011;7757;52.626;4.746;2023-07-28T09:34:22;13.55;;;4.90;;
15312;SDS011;7757;52.626;4.746;2023-07-28T09:36:49;16.40;;;4.78;;
15312;SDS011;7757;52.626;4.746;2023-07-28T09:39:14;14.52;;;4.38;;
15312;SDS011;7757;52.626;4.746;2023-07-28T09:41:41;14.88;;;5.10;;
15312;SDS011;7757;52.626;4.746;2023-07-28T09:44:09;14.32;;;4.60;;
15312;SDS011;7757;52.626;4.746;2023-07-28T09:46:35;16.63;;;5.50;;
15312;SDS011;7757;52.626;4.746;2023-07-28T09:49:12;16.92;;;5.15;;
15312;SDS011;7757;52.626;4.746;2023-07-28T09:51:41;21.45;;;5.05;;
15312;SDS011;7757;52.626;4.746;2023-07-28T09:54:12;15.07;;;4.85;;
15312;SDS011;7757;52.626;4.746;2023-07-28T09:56:39;17.85;;;4.82;;
15312;SDS011;7757;52.626;4.746;2023-07-28T09:59:09;15.68;;;5.00;;
15312;SDS011;7757;52.626;4.746;2023-07-28T10:01:41;17.58;;;5.10;;
15312;SDS011;7757;52.626;4.746;2023-07-28T10:04:10;19.75;;;5.35;;
15312;SDS011;7757;52.626;4.746;2023-07-28T10:06:37;13.48;;;4.75;;
15312;SDS011;7757;52.626;4.746;2023-07-28T10:09:03;19.80;;;5.40;;
15312;SDS011;7757;52.626;4.746;2023-07-28T10:11:30;17.05;;;5.03;;
15312;SDS011;7757;52.626;4.746;2023-07-28T10:13:56;16.88;;;5.60;;
15312;SDS011;7757;52.626;4.746;2023-07-28T10:16:37;16.02;;;5.13;;
15312;SDS011;7757;52.626;4.746;2023-07-28T10:19:04;14.80;;;5.07;;
15312;SDS011;7757;52.626;4.746;2023-07-28T10:21:30;17.50;;;5.07;;
15312;SDS011;7757;52.626;4.746;2023-07-28T10:23:57;18.17;;;5.68;;
15312;SDS011;7757;52.626;4.746;2023-07-28T10:26:35;12.65;;;4.95;;
15312;SDS011;7757;52.626;4.746;2023-07-28T10:29:12;17.88;;;5.15;;
15312;SDS011;7757;52.626;4.746;2023-07-28T10:31:51;17.67;;;5.22;;
15312;SDS011;7757;52.626;4.746;2023-07-28T10:34:18;16.33;;;5.25;;
15312;SDS011;7757;52.626;4.746;2023-07-28T10:36:44;19.55;;;5.40;;
15312;SDS011;7757;52.626;4.746;2023-07-28T10:39:13;17.00;;;5.53;;
15312;SDS011;7757;52.626;4.746;2023-07-28T10:44:29;16.05;;;4.53;;
15312;SDS011;7757;52.626;4.746;2023-07-28T10:46:54;20.13;;;5.07;;
15312;SDS011;7757;52.626;4.746;2023-07-28T10:49:20;19.02;;;4.85;;
15312;SDS011;7757;52.626;4.746;2023-07-28T10:51:45;17.42;;;4.60;;
15312;SDS011;7757;52.626;4.746;2023-07-28T10:54:11;14.70;;;4.63;;
15312;SDS011;7757;52.626;4.746;2023-07-28T10:56:41;17.58;;;4.80;;
15312;SDS011;7757;52.626;4.746;2023-07-28T10:59:07;15.80;;;4.35;;
15312;SDS011;7757;52.626;4.746;2023-07-28T11:01:39;18.42;;;5.03;;
15312;SDS011;7757;52.626;4.746;2023-07-28T11:04:14;16.48;;;4.20;;
15312;SDS011;7757;52.626;4.746;2023-07-28T11:06:42;15.57;;;4.72;;
15312;SDS011;7757;52.626;4.746;2023-07-28T11:09:09;17.60;;;4.90;;
15312;SDS011;7757;52.626;4.746;2023-07-28T11:11:36;13.52;;;4.93;;
15312;SDS011;7757;52.626;4.746;2023-07-28T11:14:06;16.90;;;5.10;;
15312;SDS011;7757;52.626;4.746;2023-07-28T11:16:33;19.10;;;5.00;;
15312;SDS011;7757;52.626;4.746;2023-07-28T11:19:01;19.60;;;5.30;;
15312;SDS011;7757;52.626;4.746;2023-07-28T11:21:27;17.73;;;5.70;;
15312;SDS011;7757;52.626;4.746;2023-07-28T11:23:55;19.98;;;5.20;;
15312;SDS011;7757;52.626;4.746;2023-07-28T11:26:20;14.70;;;4.50;;
15312;SDS011;7757;52.626;4.746;2023-07-28T11:28:47;17.83;;;5.07;;
15312;SDS011;7757;52.626;4.746;2023-07-28T11:31:13;16.10;;;4.85;;
15312;SDS011;7757;52.626;4.746;2023-07-28T11:33:39;16.55;;;4.80;;
15312;SDS011;7757;52.626;4.746;2023-07-28T11:36:05;16.90;;;5.20;;
15312;SDS011;7757;52.626;4.746;2023-07-28T11:38:31;19.95;;;4.53;;
15312;SDS011;7757;52.626;4.746;2023-07-28T11:40:58;20.80;;;5.38;;
15312;SDS011;7757;52.626;4.746;2023-07-28T11:43:25;18.23;;;5.53;;
15312;SDS011;7757;52.626;4.746;2023-07-28T11:45:51;15.02;;;4.85;;
15312;SDS011;7757;52.626;4.746;2023-07-28T11:48:16;15.32;;;4.82;;
15312;SDS011;7757;52.626;4.746;2023-07-28T11:50:43;12.82;;;4.55;;
15312;SDS011;7757;52.626;4.746;2023-07-28T11:53:10;17.02;;;5.38;;
15312;SDS011;7757;52.626;4.746;2023-07-28T11:55:38;17.33;;;5.20;;
15312;SDS011;7757;52.626;4.746;2023-07-28T11:58:05;18.10;;;4.93;;
15312;SDS011;7757;52.626;4.746;2023-07-28T12:00:31;13.38;;;4.10;;
15312;SDS011;7757;52.626;4.746;2023-07-28T12:03:12;12.20;;;4.60;;
15312;SDS011;7757;52.626;4.746;2023-07-28T12:05:40;13.75;;;4.45;;
15312;SDS011;7757;52.626;4.746;2023-07-28T12:08:07;18.73;;;4.72;;
15312;SDS011;7757;52.626;4.746;2023-07-28T12:10:33;13.98;;;4.32;;
15312;SDS011;7757;52.626;4.746;2023-07-28T12:13:05;17.75;;;4.68;;
15312;SDS011;7757;52.626;4.746;2023-07-28T12:15:39;15.82;;;4.25;;
15312;SDS011;7757;52.626;4.746;2023-07-28T12:20:34;15.75;;;5.07;;
15312;SDS011;7757;52.626;4.746;2023-07-28T12:23:01;17.35;;;4.43;;
15312;SDS011;7757;52.626;4.746;2023-07-28T12:25:29;15.93;;;4.40;;
15312;SDS011;7757;52.626;4.746;2023-07-28T12:27:54;15.30;;;4.53;;
15312;SDS011;7757;52.626;4.746;2023-07-28T12:30:20;16.05;;;4.45;;
15312;SDS011;7757;52.626;4.746;2023-07-28T12:32:46;12.88;;;3.88;;
15312;SDS011;7757;52.626;4.746;2023-07-28T12:35:13;14.95;;;3.85;;
15312;SDS011;7757;52.626;4.746;2023-07-28T12:37:39;12.82;;;3.47;;
15312;SDS011;7757;52.626;4.746;2023-07-28T12:40:05;12.07;;;3.97;;
15312;SDS011;7757;52.626;4.746;2023-07-28T12:42:31;12.48;;;3.75;;
15312;SDS011;7757;52.626;4.746;2023-07-28T12:44:58;10.65;;;3.90;;
15312;SDS011;7757;52.626;4.746;2023-07-28T12:47:23;12.40;;;3.80;;
15312;SDS011;7757;52.626;4.746;2023-07-28T12:49:49;13.48;;;4.30;;
15312;SDS011;7757;52.626;4.746;2023-07-28T12:52:15;15.38;;;4.20;;
15312;SDS011;7757;52.626;4.746;2023-07-28T12:54:41;14.63;;;4.30;;
15312;SDS011;7757;52.626;4.746;2023-07-28T12:57:08;12.15;;;3.80;;
15312;SDS011;7757;52.626;4.746;2023-07-28T12:59:35;13.73;;;4.40;;
15312;SDS011;7757;52.626;4.746;2023-07-28T13:02:01;12.65;;;4.00;;
15312;SDS011;7757;52.626;4.746;2023-07-28T13:04:27;11.75;;;3.50;;
15312;SDS011;7757;52.626;4.746;2023-07-28T13:06:52;14.75;;;4.13;;
15312;SDS011;7757;52.626;4.746;2023-07-28T13:09:20;15.38;;;4.03;;
15312;SDS011;7757;52.626;4.746;2023-07-28T13:11:45;14.05;;;4.07;;
15312;SDS011;7757;52.626;4.746;2023-07-28T13:14:11;12.07;;;4.18;;
15312;SDS011;7757;52.626;4.746;2023-07-28T13:16:36;15.43;;;4.28;;
15312;SDS011;7757;52.626;4.746;2023-07-28T13:19:03;13.57;;;4.55;;
15312;SDS011;7757;52.626;4.746;2023-07-28T13:21:33;14.20;;;4.63;;
15312;SDS011;7757;52.626;4.746;2023-07-28T13:23:59;14.40;;;4.47;;
15312;SDS011;7757;52.626;4.746;2023-07-28T13:26:24;15.75;;;4.72;;
15312;SDS011;7757;52.626;4.746;2023-07-28T13:28:50;14.85;;;4.72;;
15312;SDS011;7757;52.626;4.746;2023-07-28T13:31:16;13.45;;;4.38;;
15312;SDS011;7757;52.626;4.746;2023-07-28T13:33:44;16.33;;;4.82;;
15312;SDS011;7757;52.626;4.746;2023-07-28T13:36:11;18.58;;;5.03;;
15312;SDS011;7757;52.626;4.746;2023-07-28T13:38:37;14.05;;;5.13;;
15312;SDS011;7757;52.626;4.746;2023-07-28T13:41:04;14.40;;;5.50;;
15312;SDS011;7757;52.626;4.746;2023-07-28T13:43:35;14.50;;;4.95;;
15312;SDS011;7757;52.626;4.746;2023-07-28T13:46:02;16.52;;;4.88;;
15312;SDS011;7757;52.626;4.746;2023-07-28T13:48:29;16.42;;;4.80;;
15312;SDS011;7757;52.626;4.746;2023-07-28T13:50:55;16.15;;;5.57;;
15312;SDS011;7757;52.626;4.746;2023-07-28T13:53:20;16.40;;;4.95;;
15312;SDS011;7757;52.626;4.746;2023-07-28T13:55:49;14.40;;;4.90;;
15312;SDS011;7757;52.626;4.746;2023-07-28T13:58:16;13.10;;;4.28;;
15312;SDS011;7757;52.626;4.746;2023-07-28T14:00:41;15.07;;;5.10;;
15312;SDS011;7757;52.626;4.746;2023-07-28T14:03:07;12.60;;;4.45;;
15312;SDS011;7757;52.626;4.746;2023-07-28T14:05:32;13.00;;;4.40;;
15312;SDS011;7757;52.626;4.746;2023-07-28T14:07:57;15.40;;;4.55;;
15312;SDS011;7757;52.626;4.746;2023-07-28T14:10:24;16.90;;;3.83;;
15312;SDS011;7757;52.626;4.746;2023-07-28T14:12:49;14.00;;;4.13;;
15312;SDS011;7757;52.626;4.746;2023-07-28T14:15:16;13.73;;;4.10;;
15312;SDS011;7757;52.626;4.746;2023-07-28T14:17:42;11.00;;;3.58;;
15312;SDS011;7757;52.626;4.746;2023-07-28T14:20:07;11.05;;;3.55;;
15312;SDS011;7757;52.626;4.746;2023-07-28T14:22:34;10.30;;;3.47;;
15312;SDS011;7757;52.626;4.746;2023-07-28T14:24:59;10.98;;;3.13;;
15312;SDS011;7757;52.626;4.746;2023-07-28T14:27:25;13.82;;;3.40;;
15312;SDS011;7757;52.626;4.746;2023-07-28T14:29:50;11.38;;;3.03;;
15312;SDS011;7757;52.626;4.746;2023-07-28T14:32:18;10.52;;;2.92;;
15312;SDS011;7757;52.626;4.746;2023-07-28T14:34:44;12.93;;;3.03;;
15312;SDS011;7757;52.626;4.746;2023-07-28T14:37:11;12.00;;;2.80;;
15312;SDS011;7757;52.626;4.746;2023-07-28T14:39:36;10.02;;;2.90;;
15312;SDS011;7757;52.626;4.746;2023-07-28T14:42:03;11.35;;;3.10;;
15312;SDS011;7757;52.626;4.746;2023-07-28T14:44:29;11.20;;;2.83;;
15312;SDS011;7757;52.626;4.746;2023-07-28T14:46:54;10.68;;;3.08;;
15312;SDS011;7757;52.626;4.746;2023-07-28T14:49:20;11.65;;;3.10;;
15312;SDS011;7757;52.626;4.746;2023-07-28T14:51:46;10.02;;;3.20;;
15312;SDS011;7757;52.626;4.746;2023-07-28T14:54:12;11.18;;;3.50;;
15312;SDS011;7757;52.626;4.746;2023-07-28T14:56:38;9.70;;;3.30;;
15312;SDS011;7757;52.626;4.746;2023-07-28T14:59:03;11.95;;;4.00;;
15312;SDS011;7757;52.626;4.746;2023-07-28T15:01:29;12.85;;;3.95;;